Time;durP1;ratioP1;P1;durP2;ratioP2;P2;SDS_P1;SDS_P2;PMS_P1;PMS_P2;Temp;Humidity;BMP_temperature;BMP_pressure;BME280_temperature;BME280_humidity;BME280_pressure;Samples;Min_cycle;Max_cycle;Signal;HPM_P1;HPM_P2
2023/06/14 00:03:21;;;;;;;6.68;4.30;;;;;;;24.37;31.90;101272.63;16111015;19;130487;-43
2023/06/14 00:08:44;;;;;;;7.88;4.35;;;;;;;24.35;31.95;101278.47;16112238;19;129592;-48
2023/06/14 00:14:05;;;;;;;7.75;4.15;;;;;;;24.34;31.79;101282.41;16110380;19;132204;-46
2023/06/14 00:19:27;;;;;;;6.05;4.18;;;;;;;24.34;32.08;101284.38;16113490;19;131418;-45
2023/06/14 00:24:50;;;;;;;6.65;4.28;;;;;;;24.34;31.83;101287.16;16113936;19;129713;-43
2023/06/14 00:30:15;;;;;;;4.82;3.75;;;;;;;24.32;32.16;101278.19;16109551;19;129629;-48
2023/06/14 00:35:37;;;;;;;5.63;3.90;;;;;;;24.31;31.82;101298.88;16116583;19;129656;-46
2023/06/14 00:40:59;;;;;;;7.43;3.90;;;;;;;24.31;32.22;101293.31;16113584;19;129318;-46
2023/06/14 00:46:22;;;;;;;4.85;3.67;;;;;;;24.30;31.83;101292.47;16112222;19;130121;-44
2023/06/14 00:51:45;;;;;;;6.38;3.90;;;;;;;24.30;32.09;101291.63;16114515;19;130772;-47
2023/06/14 00:57:07;;;;;;;4.10;3.70;;;;;;;24.29;32.01;101287.13;16108868;19;130263;-45
2023/06/14 01:02:29;;;;;;;7.80;3.88;;;;;;;24.29;32.00;101289.94;16110538;19;130857;-46
2023/06/14 01:08:10;;;;;;;7.32;3.72;;;;;;;24.30;32.09;101280.44;16114550;19;134731;-46
2023/06/14 01:13:38;;;;;;;5.50;3.63;;;;;;;24.26;32.17;101286.56;16109075;19;134652;-50
2023/06/14 01:19:02;;;;;;;8.70;4.13;;;;;;;24.24;32.06;101283.22;16099892;19;130007;-48
2023/06/14 01:24:25;;;;;;;6.05;3.70;;;;;;;24.23;31.76;101281.53;16109130;19;129387;-44
2023/06/14 01:29:47;;;;;;;6.80;3.63;;;;;;;24.23;32.35;101291.84;16109723;19;132099;-47
2023/06/14 01:35:09;;;;;;;5.57;3.95;;;;;;;24.22;31.76;101285.44;16108190;19;130057;-43
2023/06/14 01:40:33;;;;;;;6.40;4.03;;;;;;;24.23;32.08;101303.03;16106135;19;132115;-49
2023/06/14 01:45:56;;;;;;;5.40;4.00;;;;;;;24.21;32.00;101299.66;16108806;19;129485;-51
2023/06/14 01:51:18;;;;;;;5.22;3.95;;;;;;;24.19;32.14;101302.75;16109664;19;130579;-50
2023/06/14 01:56:40;;;;;;;5.38;3.95;;;;;;;24.18;32.01;101295.47;16104214;19;128971;-52
2023/06/14 02:02:03;;;;;;;3.95;3.55;;;;;;;24.17;32.20;101299.38;16108582;19;129672;-47
2023/06/14 02:07:25;;;;;;;6.25;4.13;;;;;;;24.17;31.75;101299.38;16104599;19;131298;-52
2023/06/14 02:12:47;;;;;;;5.75;3.88;;;;;;;24.16;31.78;101303.28;16107356;19;130616;-48
2023/06/14 02:18:09;;;;;;;6.25;3.70;;;;;;;24.16;31.94;101296.88;16110170;19;130739;-45
2023/06/14 02:23:32;;;;;;;4.53;3.72;;;;;;;24.15;31.82;101293.22;16103775;19;133395;-43
2023/06/14 02:28:56;;;;;;;6.20;3.90;;;;;;;24.15;32.16;101292.41;16110379;19;130659;-46
2023/06/14 02:34:19;;;;;;;5.30;3.90;;;;;;;24.14;32.10;101297.13;16101560;19;130724;-43
2023/06/14 02:39:41;;;;;;;5.65;3.88;;;;;;;24.14;31.79;101299.94;16105097;19;129782;-43
2023/06/14 02:45:04;;;;;;;5.60;3.75;;;;;;;24.12;31.95;101304.97;16105436;19;130120;-47
2023/06/14 02:50:28;;;;;;;5.47;3.35;;;;;;;24.11;32.15;101298.53;16119825;19;130386;-46
2023/06/14 02:55:50;;;;;;;5.45;3.70;;;;;;;24.10;31.91;101304.41;16112809;19;130771;-44
2023/06/14 03:01:13;;;;;;;5.43;3.63;;;;;;;24.09;32.02;101302.72;16120120;19;133435;-47
2023/06/14 03:06:36;;;;;;;5.90;3.25;;;;;;;24.08;32.04;101313.03;16118734;19;131251;-44
2023/06/14 03:11:58;;;;;;;6.75;3.55;;;;;;;24.08;32.05;101312.22;16116669;19;129840;-46
2023/06/14 03:17:20;;;;;;;6.60;3.90;;;;;;;24.06;32.09;101318.06;16117487;19;129546;-54
2023/06/14 03:22:44;;;;;;;4.38;3.72;;;;;;;24.06;31.91;101325.63;16119328;19;130617;-48
2023/06/14 03:28:07;;;;;;;6.43;3.72;;;;;;;24.05;31.87;101323.94;16124042;19;129726;-45
2023/06/14 03:33:29;;;;;;;4.95;3.72;;;;;;;24.04;31.85;101333.44;16121247;19;130442;-45
2023/06/14 03:38:51;;;;;;;5.07;3.75;;;;;;;24.04;31.85;101342.69;16118372;19;133789;-46
2023/06/14 03:44:18;;;;;;;4.53;3.70;;;;;;;24.03;31.93;101338.19;16119084;19;130451;-48
2023/06/14 03:49:40;;;;;;;4.28;3.88;;;;;;;24.01;31.98;101350.75;16115263;19;130885;-44
2023/06/14 03:55:02;;;;;;;5.00;3.63;;;;;;;24.01;31.74;101340.41;16114574;19;129514;-46
2023/06/14 04:00:27;;;;;;;4.63;3.85;;;;;;;23.99;31.63;101345.44;16116895;19;130448;-43
2023/06/14 04:05:49;;;;;;;4.82;3.97;;;;;;;23.99;31.74;101345.44;16118202;19;131285;-44
2023/06/14 04:11:11;;;;;;;4.82;3.65;;;;;;;23.97;31.88;101351.31;16119348;19;130638;-45
2023/06/14 04:16:33;;;;;;;5.25;3.60;;;;;;;23.96;32.15;101363.59;16112910;19;130974;-44
2023/06/14 04:21:55;;;;;;;4.25;3.55;;;;;;;23.96;31.95;101360.81;16117408;19;129784;-44
2023/06/14 04:27:21;;;;;;;4.32;3.55;;;;;;;23.95;31.91;101367.50;16119617;19;129536;-46
2023/06/14 04:32:43;;;;;;;4.53;3.78;;;;;;;23.94;32.05;101363.03;16113636;19;130043;-43
2023/06/14 04:38:09;;;;;;;4.88;3.42;;;;;;;23.94;31.87;101362.16;16118928;19;129663;-43
2023/06/14 04:43:32;;;;;;;;;;;;;;;23.91;31.89;101369.16;16115372;19;131596;-45
2023/06/14 04:48:54;;;;;;;5.22;3.60;;;;;;;23.93;31.83;101371.69;16112854;19;131565;-47
2023/06/14 04:54:18;;;;;;;6.63;3.75;;;;;;;23.92;31.69;101382.00;16108536;19;131970;-46
2023/06/14 04:59:41;;;;;;;5.93;3.65;;;;;;;23.90;31.73;101381.44;16112455;19;130483;-49
2023/06/14 05:05:06;;;;;;;5.95;3.58;;;;;;;23.90;31.42;101378.66;16110762;19;129672;-47
2023/06/14 05:10:28;;;;;;;5.53;3.88;;;;;;;23.91;31.80;101383.13;16106456;19;129784;-46
2023/06/14 05:15:50;;;;;;;8.02;3.13;;;;;;;23.91;31.93;101385.91;16110134;19;129871;-46
2023/06/14 05:21:12;;;;;;;8.85;4.13;;;;;;;23.90;31.66;101384.25;16109606;19;131505;-46
2023/06/14 05:26:34;;;;;;;7.25;4.07;;;;;;;23.90;31.63;101377.81;16104717;19;130815;-43
2023/06/14 05:31:55;;;;;;;13.50;4.97;;;;;;;23.82;31.47;101381.97;16110330;19;130306;-43
2023/06/14 05:37:17;;;;;;;11.32;4.43;;;;;;;23.77;31.18;101380.00;16106200;19;129952;-45
2023/06/14 05:42:40;;;;;;;7.10;4.80;;;;;;;23.75;31.02;101386.97;16101817;19;131766;-46
2023/06/14 05:48:02;;;;;;;8.23;4.82;;;;;;;23.74;31.30;101394.50;16100916;19;130898;-45
2023/06/14 05:53:23;;;;;;;6.82;4.38;;;;;;;23.77;31.28;101390.31;16104912;19;131291;-43
2023/06/14 05:58:46;;;;;;;9.70;4.43;;;;;;;23.81;31.37;101399.84;16105523;19;130821;-48
2023/06/14 06:04:08;;;;;;;5.95;4.10;;;;;;;23.82;30.89;101404.31;16105090;19;131433;-47
2023/06/14 06:09:30;;;;;;;11.88;4.60;;;;;;;23.85;30.67;101403.78;16108283;19;130300;-48
2023/06/14 06:14:53;;;;;;;8.88;4.40;;;;;;;23.87;30.53;101412.75;16105304;19;131193;-48
2023/06/14 06:20:15;;;;;;;8.43;4.32;;;;;;;23.89;30.93;101413.28;16108346;19;130602;-48
2023/06/14 06:25:37;;;;;;;6.10;4.32;;;;;;;23.91;30.80;101416.66;16126192;19;130668;-44
2023/06/14 06:30:59;;;;;;;7.35;4.30;;;;;;;23.92;30.88;101415.56;16118276;19;130513;-45
2023/06/14 06:36:25;;;;;;;7.45;4.18;;;;;;;23.91;31.16;101416.66;16123347;19;131193;-48
2023/06/14 06:41:47;;;;;;;8.52;4.60;;;;;;;23.94;31.04;101426.44;16125704;19;129253;-51
2023/06/14 06:47:11;;;;;;;10.30;4.07;;;;;;;23.93;30.79;101422.81;16124469;19;130252;-48
2023/06/14 06:52:33;;;;;;;10.05;4.53;;;;;;;23.94;30.91;101424.50;16122233;19;130467;-44
2023/06/14 06:57:55;;;;;;;11.15;4.82;;;;;;;23.95;31.11;101426.19;16123802;19;129625;-45
2023/06/14 07:03:17;;;;;;;16.35;4.47;;;;;;;23.95;31.18;101431.78;16126381;19;130823;-49
2023/06/14 07:08:39;;;;;;;5.85;4.10;;;;;;;23.96;31.03;101433.47;16120036;19;130995;-44
2023/06/14 07:14:01;;;;;;;13.05;4.07;;;;;;;23.97;31.15;101437.94;16119196;19;129349;-46
2023/06/14 07:19:23;;;;;;;8.05;4.30;;;;;;;23.97;31.15;101451.91;16109013;19;129493;-50
2023/06/14 07:24:45;;;;;;;6.88;4.22;;;;;;;23.96;31.43;101455.81;16114025;19;129509;-45
2023/06/14 07:30:08;;;;;;;6.10;4.18;;;;;;;23.97;31.40;101463.09;16117707;19;131342;-45
2023/06/14 07:35:30;;;;;;;9.73;3.97;;;;;;;23.97;31.03;101456.66;16116693;19;130879;-46
2023/06/14 07:40:52;;;;;;;7.90;4.13;;;;;;;23.97;31.35;101462.25;16119196;19;134114;-46
2023/06/14 07:46:14;;;;;;;9.60;3.80;;;;;;;23.97;31.21;101465.03;16113929;19;130792;-44
2023/06/14 07:51:36;;;;;;;11.05;4.18;;;;;;;23.83;31.67;101467.47;16114181;19;129523;-47
2023/06/14 07:57:00;;;;;;;5.50;4.32;;;;;;;23.69;32.14;101472.69;16116363;19;129851;-47
2023/06/14 08:02:22;;;;;;;6.00;4.25;;;;;;;23.62;32.33;101475.72;16114938;19;132182;-45
2023/06/14 08:07:44;;;;;;;7.18;4.18;;;;;;;23.59;32.63;101478.19;16118711;19;129528;-47
2023/06/14 08:13:06;;;;;;;14.13;4.05;;;;;;;23.60;32.92;101475.13;16119752;19;131599;-44
2023/06/14 08:18:30;;;;;;;10.90;3.88;;;;;;;23.69;32.53;101477.41;16117502;19;130107;-44
2023/06/14 08:23:52;;;;;;;9.80;4.35;;;;;;;23.76;32.23;101478.88;16120193;19;134632;-48
2023/06/14 08:29:14;;;;;;;8.43;3.88;;;;;;;23.79;32.17;101481.16;16118914;19;130010;-47
2023/06/14 08:34:36;;;;;;;9.35;4.50;;;;;;;23.82;32.07;101483.38;16108339;19;130019;-44
2023/06/14 08:39:58;;;;;;;6.30;3.53;;;;;;;23.85;31.71;101476.44;16114221;19;130038;-45
2023/06/14 08:45:21;;;;;;;5.70;3.78;;;;;;;23.87;32.23;101479.81;16115228;19;131760;-45
2023/06/14 08:50:48;;;;;;;7.47;3.60;;;;;;;23.90;31.80;101484.84;16113214;19;129575;-47
2023/06/14 08:56:13;;;;;;;9.57;4.18;;;;;;;23.92;32.21;101485.41;16116095;19;130733;-44
2023/06/14 09:01:37;;;;;;;7.70;3.72;;;;;;;23.93;32.10;101489.06;16114948;19;131360;-44
2023/06/14 09:06:59;;;;;;;5.88;3.42;;;;;;;23.94;32.42;101483.19;16108047;19;129836;-48
2023/06/14 09:12:22;;;;;;;6.60;3.75;;;;;;;23.95;32.09;101486.81;16113699;19;129062;-48
2023/06/14 09:17:44;;;;;;;5.65;3.75;;;;;;;23.96;32.26;101497.75;16113545;19;129725;-44
2023/06/14 09:23:06;;;;;;;8.30;3.50;;;;;;;23.95;31.78;101493.25;16111794;19;130878;-48
2023/06/14 09:28:28;;;;;;;6.68;3.47;;;;;;;23.95;31.68;101504.44;16108367;19;131492;-45
2023/06/14 09:33:51;;;;;;;10.07;3.67;;;;;;;23.97;31.77;101507.81;16107857;19;129945;-45
2023/06/14 09:39:17;;;;;;;5.75;3.75;;;;;;;23.98;31.66;101500.25;16112485;19;129673;-46
2023/06/14 09:44:39;;;;;;;9.65;3.50;;;;;;;23.99;31.85;101504.75;16111392;19;130650;-43
2023/06/14 09:50:01;;;;;;;6.75;3.50;;;;;;;24.00;31.53;101505.59;16107783;19;130400;-46
2023/06/14 09:55:26;;;;;;;9.75;3.40;;;;;;;23.99;31.64;101492.72;16108689;19;130631;-45
2023/06/14 10:00:51;;;;;;;7.00;3.55;;;;;;;24.00;31.60;101502.81;16106217;19;129820;-45
2023/06/14 10:06:13;;;;;;;10.30;3.53;;;;;;;24.00;31.45;101500.00;16103824;19;129776;-47
2023/06/14 10:11:36;;;;;;;7.78;3.47;;;;;;;24.01;30.94;101496.06;16108690;19;129244;-46
2023/06/14 10:17:16;;;;;;;6.13;3.25;;;;;;;24.02;31.06;101515.38;16105694;19;130109;-50
2023/06/14 10:22:46;;;;;;;5.28;2.92;;;;;;;24.01;30.89;101512.84;16106028;19;130979;-51
2023/06/14 10:28:19;;;;;;;9.23;4.18;;;;;;;24.01;30.61;101501.66;16106372;19;129727;-48
2023/06/14 10:33:53;;;;;;;6.15;2.83;;;;;;;24.02;31.07;101508.94;16103959;19;132857;-46
2023/06/14 10:39:19;;;;;;;6.07;2.97;;;;;;;24.00;31.22;101502.81;16102668;19;129740;-43
2023/06/14 10:44:44;;;;;;;5.90;2.97;;;;;;;24.01;30.67;101507.25;16095080;19;131048;-45
2023/06/14 10:50:08;;;;;;;7.28;2.90;;;;;;;24.00;30.94;101506.44;16096093;19;129721;-44
2023/06/14 10:55:35;;;;;;;11.68;2.92;;;;;;;24.02;30.72;101508.94;16102532;19;129494;-47
2023/06/14 11:00:58;;;;;;;7.82;2.95;;;;;;;24.01;30.65;101499.72;16103691;19;129429;-46
2023/06/14 11:06:23;;;;;;;3.75;2.70;;;;;;;24.01;30.48;101501.66;16106626;19;131286;-50
2023/06/14 11:11:46;;;;;;;5.80;2.50;;;;;;;24.02;30.40;101489.38;16116883;19;130466;-47
2023/06/14 11:17:08;;;;;;;7.05;3.00;;;;;;;24.01;30.46;101496.06;16116342;19;130459;-45
2023/06/14 11:22:39;;;;;;;8.68;2.83;;;;;;;24.01;30.55;101491.34;16118542;19;129770;-46
2023/06/14 11:28:01;;;;;;;4.57;2.90;;;;;;;24.02;30.26;101486.56;16093201;19;131821;-44
2023/06/14 11:33:23;;;;;;;5.13;2.75;;;;;;;24.02;30.45;101483.78;16101949;19;129532;-45
2023/06/14 11:38:45;;;;;;;6.68;2.72;;;;;;;24.04;30.28;101484.34;16099726;19;131361;-47
2023/06/14 11:44:07;;;;;;;7.03;2.50;;;;;;;24.04;30.64;101479.63;16114661;19;131685;-45
2023/06/14 11:49:35;;;;;;;3.55;2.60;;;;;;;24.05;30.58;101470.13;16116424;19;130178;-47
2023/06/14 11:54:58;;;;;;;5.22;2.70;;;;;;;24.05;30.67;101481.31;16120872;19;129535;-49
2023/06/14 12:00:25;;;;;;;4.22;2.70;;;;;;;24.05;30.48;101474.88;16119031;19;130381;-45
2023/06/14 12:05:47;;;;;;;4.25;2.22;;;;;;;24.05;30.55;101477.66;16117662;19;133298;-49
2023/06/14 12:11:13;;;;;;;5.88;2.38;;;;;;;24.07;30.77;101483.81;16114477;19;131094;-45
2023/06/14 12:16:38;;;;;;;6.22;2.50;;;;;;;24.07;30.21;101478.25;16116975;19;129490;-49
2023/06/14 12:22:04;;;;;;;9.27;2.25;;;;;;;24.06;30.05;101476.56;16113531;19;130002;-44
2023/06/14 12:27:28;;;;;;;3.10;2.10;;;;;;;24.06;30.01;101479.34;16114806;19;129968;-45
2023/06/14 12:32:51;;;;;;;3.90;2.00;;;;;;;24.06;29.96;101487.72;16113793;19;129617;-46
2023/06/14 12:38:15;;;;;;;2.63;1.88;;;;;;;24.05;29.43;101489.69;16115382;19;130531;-47
2023/06/14 12:43:37;;;;;;;4.88;2.15;;;;;;;24.05;29.56;101486.03;16113300;19;129941;-47
2023/06/14 12:48:59;;;;;;;3.55;1.77;;;;;;;24.04;29.40;101485.22;16109802;19;130394;-47
2023/06/14 12:54:25;;;;;;;2.38;1.88;;;;;;;24.05;29.69;101481.31;16112814;19;129741;-44
2023/06/14 13:00:01;;;;;;;3.03;1.70;;;;;;;24.08;28.67;101486.34;16108913;19;129777;-46
2023/06/14 13:05:24;;;;;;;2.63;1.48;;;;;;;24.16;28.73;101482.19;16112828;19;130798;-47
2023/06/14 13:10:46;;;;;;;4.88;1.60;;;;;;;24.23;28.68;101481.94;16112309;19;130350;-47
2023/06/14 13:16:08;;;;;;;4.40;1.60;;;;;;;24.29;28.68;101486.50;16113442;19;129693;-50
2023/06/14 13:21:30;;;;;;;3.40;1.60;;;;;;;24.32;28.37;101479.53;16109379;19;130739;-55
2023/06/14 13:26:52;;;;;;;6.57;1.90;;;;;;;24.35;27.75;101487.38;16112001;19;131909;-53
2023/06/14 13:32:14;;;;;;;2.47;1.42;;;;;;;24.38;27.97;101489.59;16110687;19;130544;-54
2023/06/14 13:37:36;;;;;;;3.45;1.75;;;;;;;24.38;27.96;101479.28;16112660;19;130802;-52
2023/06/14 13:42:58;;;;;;;12.05;1.80;;;;;;;24.39;27.72;101482.91;16107820;19;131287;-54
2023/06/14 13:48:20;;;;;;;6.57;2.10;;;;;;;24.41;27.36;101497.44;16108288;19;130572;-53
2023/06/14 13:53:42;;;;;;;4.05;1.55;;;;;;;24.41;27.44;101477.88;16106139;19;129622;-51
2023/06/14 13:59:04;;;;;;;3.35;1.50;;;;;;;24.41;27.60;101472.28;16104068;19;131014;-53
2023/06/14 14:04:29;;;;;;;3.00;1.55;;;;;;;24.41;27.58;101467.56;16104910;19;130121;-47
2023/06/14 14:09:53;;;;;;;4.57;1.50;;;;;;;24.40;27.24;101465.88;16104448;19;130508;-51
2023/06/14 14:15:15;;;;;;;3.53;1.58;;;;;;;24.39;27.57;101472.56;16105385;19;130245;-51
2023/06/14 14:20:37;;;;;;;3.42;1.65;;;;;;;24.41;27.55;101470.34;16104724;19;129726;-46
2023/06/14 14:26:03;;;;;;;3.47;1.63;;;;;;;24.44;27.68;101471.75;16105586;19;130813;-51
2023/06/14 14:31:25;;;;;;;4.28;1.55;;;;;;;24.45;27.44;101472.56;16104390;19;130037;-50
2023/06/14 14:36:47;;;;;;;11.65;1.90;;;;;;;24.46;27.53;101463.94;16101839;19;131229;-50
2023/06/14 14:42:11;;;;;;;9.40;1.70;;;;;;;24.50;27.74;101467.84;16113357;19;129425;-53
2023/06/14 14:47:33;;;;;;;9.27;1.65;;;;;;;24.54;27.64;101470.97;16115394;19;130478;-46
2023/06/14 14:52:56;;;;;;;12.55;1.60;;;;;;;24.57;27.67;101474.03;16116748;19;130434;-50
2023/06/14 14:58:18;;;;;;;2.20;1.50;;;;;;;24.56;27.61;101469.56;16118588;19;129800;-51
2023/06/14 15:03:39;;;;;;;4.40;1.77;;;;;;;24.60;27.37;101481.03;16115325;19;130389;-45
2023/06/14 15:09:19;;;;;;;7.93;1.60;;;;;;;24.64;27.48;101481.31;16115955;19;132402;-49
2023/06/14 15:14:41;;;;;;;8.15;2.03;;;;;;;24.65;27.43;101477.41;16111709;19;130560;-51
2023/06/14 15:20:05;;;;;;;5.72;1.50;;;;;;;24.66;27.27;101473.50;16113567;19;129646;-49
2023/06/14 15:25:29;;;;;;;8.50;1.80;;;;;;;24.67;27.74;101480.78;16118831;19;131826;-49
2023/06/14 15:30:50;;;;;;;8.23;1.40;;;;;;;24.68;27.63;101474.06;16113611;19;130002;-49
2023/06/14 15:36:12;;;;;;;8.02;1.73;;;;;;;24.69;28.00;101473.78;16108012;19;131675;-47
2023/06/14 15:41:34;;;;;;;3.60;1.40;;;;;;;24.71;27.72;101470.72;16119076;19;130156;-50
2023/06/14 15:46:56;;;;;;;10.35;1.70;;;;;;;24.71;27.56;101471.56;16119523;19;130593;-49
2023/06/14 15:52:18;;;;;;;4.68;1.38;;;;;;;24.71;27.33;101482.75;16113933;19;130664;-47
2023/06/14 15:57:40;;;;;;;8.45;1.20;;;;;;;24.70;27.32;101474.66;16113072;19;131048;-48
2023/06/14 16:03:03;;;;;;;6.47;1.73;;;;;;;24.73;27.93;101465.72;16119472;19;129941;-47
2023/06/14 16:08:25;;;;;;;8.27;1.88;;;;;;;24.76;28.04;101467.09;16107279;19;129663;-48
2023/06/14 16:14:01;;;;;;;8.27;1.95;;;;;;;24.77;28.05;101464.03;16112146;19;130802;-47
2023/06/14 16:19:23;;;;;;;9.40;2.80;;;;;;;24.77;28.12;101472.41;16116568;19;129367;-50
2023/06/14 16:24:46;;;;;;;9.93;2.42;;;;;;;24.78;27.83;101471.28;16114506;19;130951;-46
2023/06/14 16:30:08;;;;;;;13.52;2.33;;;;;;;24.78;27.50;101471.28;16108760;19;130181;-49
2023/06/14 16:35:31;;;;;;;9.75;2.28;;;;;;;24.77;27.13;101464.03;16112040;19;131842;-49
2023/06/14 16:40:53;;;;;;;4.80;1.30;;;;;;;24.77;26.70;101466.00;16109687;19;130707;-48
2023/06/14 16:46:28;;;;;;;7.18;1.20;;;;;;;24.79;26.09;101466.56;16103610;19;130463;-47
2023/06/14 16:51:50;;;;;;;5.78;1.10;;;;;;;24.81;26.54;101478.28;16114929;19;129738;-45
2023/06/14 16:57:12;;;;;;;7.15;1.15;;;;;;;24.84;26.74;101474.94;16111090;19;130682;-47
2023/06/14 17:02:34;;;;;;;8.35;1.40;;;;;;;24.85;26.67;101483.09;16108453;19;130807;-51
2023/06/14 17:07:56;;;;;;;6.90;1.40;;;;;;;24.87;26.75;101485.59;16107246;19;130760;-53
2023/06/14 17:13:18;;;;;;;7.47;1.50;;;;;;;24.88;26.83;101487.28;16104812;19;129688;-54
2023/06/14 17:18:40;;;;;;;4.22;1.02;;;;;;;24.88;26.75;101487.28;16104461;19;131030;-53
2023/06/14 17:24:03;;;;;;;5.82;0.90;;;;;;;24.91;26.59;101489.56;16109647;19;129959;-55
2023/06/14 17:29:40;;;;;;;2.08;0.95;;;;;;;24.93;26.70;101494.88;16105842;19;129968;-53
2023/06/14 17:35:03;;;;;;;2.65;0.88;;;;;;;24.91;26.87;101502.72;16103149;19;130090;-54
2023/06/14 17:40:25;;;;;;;5.57;1.20;;;;;;;24.91;27.00;101508.31;16106714;19;130265;-52
2023/06/14 17:46:02;;;;;;;3.92;0.82;;;;;;;24.91;27.04;101497.97;16097765;19;131490;-54
2023/06/14 17:51:23;;;;;;;11.13;1.02;;;;;;;24.90;27.13;101513.06;16103324;19;129477;-53
2023/06/14 17:56:47;;;;;;;10.07;1.15;;;;;;;24.91;27.27;101516.69;16108532;19;131294;-49
2023/06/14 18:02:09;;;;;;;11.38;1.67;;;;;;;24.90;27.29;101518.66;16105997;19;130172;-51
2023/06/14 18:07:31;;;;;;;4.75;1.15;;;;;;;24.86;27.35;101521.13;16109594;19;131288;-50
2023/06/14 18:12:53;;;;;;;18.38;1.80;;;;;;;24.84;27.08;101526.19;16108593;19;130131;-48
2023/06/14 18:18:15;;;;;;;9.90;1.30;;;;;;;24.81;27.21;101528.66;16122501;19;130318;-46
2023/06/14 18:23:37;;;;;;;11.15;1.10;;;;;;;24.78;27.37;101527.25;16127282;19;129948;-47
2023/06/14 18:29:01;;;;;;;6.82;1.38;;;;;;;24.74;26.82;101534.50;16123513;19;129114;-51
2023/06/14 18:34:23;;;;;;;7.75;1.50;;;;;;;24.74;26.94;101537.31;16126178;19;129686;-50
2023/06/14 18:39:45;;;;;;;5.22;0.95;;;;;;;24.74;27.05;101540.09;16121076;19;131355;-52
2023/06/14 18:45:08;;;;;;;3.42;1.25;;;;;;;24.73;27.41;101539.28;16117292;19;130335;-47
2023/06/14 18:50:30;;;;;;;5.15;1.23;;;;;;;24.73;27.38;101538.44;16121587;19;130515;-51
2023/06/14 18:55:52;;;;;;;4.63;1.27;;;;;;;24.73;27.61;101542.06;16117633;19;134129;-51
2023/06/14 19:01:14;;;;;;;4.20;1.20;;;;;;;24.71;27.43;101551.88;16121781;19;129625;-48
2023/06/14 19:06:37;;;;;;;10.52;1.30;;;;;;;24.69;27.99;101554.09;16119866;19;129971;-49
2023/06/14 19:11:59;;;;;;;10.77;1.42;;;;;;;24.66;27.75;101555.50;16117841;19;129579;-49
2023/06/14 19:17:21;;;;;;;8.13;1.35;;;;;;;24.63;28.11;101553.22;16114670;19;129875;-46
2023/06/14 19:22:43;;;;;;;5.40;1.63;;;;;;;24.62;28.09;101567.47;16117055;19;129988;-48
2023/06/14 19:28:05;;;;;;;4.45;1.35;;;;;;;24.63;27.91;101563.56;16112853;19;129553;-48
2023/06/14 19:33:27;;;;;;;6.88;1.40;;;;;;;24.62;27.88;101556.28;16114681;19;131601;-50
2023/06/14 19:38:50;;;;;;;6.25;1.60;;;;;;;24.62;28.20;101578.66;16117624;19;130312;-48
2023/06/14 19:44:12;;;;;;;4.25;1.10;;;;;;;24.62;27.75;101578.66;16117245;19;133035;-52
2023/06/14 19:49:33;;;;;;;4.72;1.30;;;;;;;24.62;28.05;101584.25;16112866;19;130286;-46
2023/06/14 19:54:55;;;;;;;7.43;1.50;;;;;;;24.61;28.15;101588.19;16111422;19;129856;-46
2023/06/14 20:00:17;;;;;;;3.22;1.40;;;;;;;24.61;28.11;101600.22;16111058;19;129449;-46
2023/06/14 20:05:41;;;;;;;17.50;1.98;;;;;;;24.60;28.18;101611.69;16100396;19;131065;-50
2023/06/14 20:11:03;;;;;;;11.93;1.77;;;;;;;24.59;28.36;101610.81;16107940;19;130966;-49
2023/06/14 20:16:25;;;;;;;9.07;1.50;;;;;;;24.57;28.16;101619.50;16104191;19;130470;-48
2023/06/14 20:21:47;;;;;;;7.10;1.65;;;;;;;24.55;28.03;101627.31;16106497;19;134783;-50
2023/06/14 20:27:10;;;;;;;7.10;2.05;;;;;;;24.53;28.24;101626.75;16106803;19;130790;-50
2023/06/14 20:32:31;;;;;;;4.75;1.70;;;;;;;24.52;28.24;101636.25;16106743;19;131440;-47
2023/06/14 20:37:53;;;;;;;3.35;1.70;;;;;;;24.49;27.89;101636.81;16108623;19;130350;-45
2023/06/14 20:43:15;;;;;;;6.13;1.90;;;;;;;24.48;28.01;101643.50;16109171;19;130702;-46
2023/06/14 20:48:37;;;;;;;3.88;1.65;;;;;;;24.47;28.06;101650.22;16109210;19;131907;-47
2023/06/14 20:53:59;;;;;;;6.90;1.80;;;;;;;24.46;28.34;101642.94;16106462;19;130925;-47
2023/06/14 20:59:21;;;;;;;3.03;1.85;;;;;;;24.46;28.46;101654.13;16105136;19;130854;-49
2023/06/14 21:04:46;;;;;;;3.88;1.95;;;;;;;24.45;27.89;101652.44;16110602;19;129719;-49
2023/06/14 21:10:08;;;;;;;7.28;2.20;;;;;;;24.43;28.15;101655.47;16103644;19;130840;-49
2023/06/14 21:15:30;;;;;;;5.97;1.42;;;;;;;24.43;28.61;101654.66;16108497;19;130360;-47
2023/06/14 21:20:52;;;;;;;7.10;1.90;;;;;;;24.41;28.14;101654.94;16109366;19;130026;-47
2023/06/14 21:26:15;;;;;;;2.80;1.85;;;;;;;24.41;28.40;101651.28;16108959;19;129721;-49
2023/06/14 21:31:37;;;;;;;5.63;1.98;;;;;;;24.41;28.35;101665.25;16111045;19;132149;-49
2023/06/14 21:37:01;;;;;;;4.30;1.43;;;;;;;24.39;28.44;101656.28;16109990;19;130316;-46
2023/06/14 21:42:23;;;;;;;3.20;1.90;;;;;;;24.39;28.52;101667.47;16111854;19;130855;-48
2023/06/14 21:47:45;;;;;;;3.17;1.60;;;;;;;24.37;28.29;101673.34;16110847;19;130269;-50
2023/06/14 21:53:07;;;;;;;3.15;1.73;;;;;;;24.37;28.32;101676.13;16108637;19;130644;-51
2023/06/14 21:58:30;;;;;;;6.97;2.20;;;;;;;24.36;28.50;101665.22;16109735;19;130092;-46
2023/06/14 22:03:52;;;;;;;6.55;1.83;;;;;;;24.35;28.70;101671.94;16105857;19;134380;-53
2023/06/14 22:09:15;;;;;;;3.38;1.70;;;;;;;24.34;28.63;101673.03;16108407;19;130078;-48
2023/06/14 22:14:37;;;;;;;4.18;1.80;;;;;;;24.33;28.93;101680.56;16105791;19;131014;-53
2023/06/14 22:19:59;;;;;;;4.47;1.60;;;;;;;24.33;28.84;101682.53;16105254;19;129883;-48
2023/06/14 22:25:21;;;;;;;4.03;1.50;;;;;;;24.33;28.59;101682.53;16107337;19;130353;-47
2023/06/14 22:30:44;;;;;;;2.92;1.60;;;;;;;24.32;28.41;101680.84;16108049;19;131257;-50
2023/06/14 22:36:11;;;;;;;5.75;1.70;;;;;;;24.31;28.79;101679.16;16107111;19;128909;-48
2023/06/14 22:41:33;;;;;;;3.67;1.77;;;;;;;24.30;29.10;101688.66;16108077;19;129710;-47
2023/06/14 22:46:55;;;;;;;4.80;1.60;;;;;;;24.29;28.80;101687.81;16104075;19;130194;-47
2023/06/14 22:52:17;;;;;;;3.05;1.65;;;;;;;24.28;28.97;101691.72;16107055;19;130588;-46
2023/06/14 22:57:45;;;;;;;3.97;1.80;;;;;;;24.27;29.27;101696.47;16104183;19;129376;-48
2023/06/14 23:03:07;;;;;;;2.45;1.70;;;;;;;24.27;29.33;101698.44;16112649;19;130691;-50
2023/06/14 23:08:31;;;;;;;3.13;1.70;;;;;;;24.25;29.12;101697.84;16118464;19;130231;-47
2023/06/14 23:13:54;;;;;;;4.22;1.52;;;;;;;24.25;29.18;101698.69;16117838;19;129914;-47
2023/06/14 23:19:17;;;;;;;2.88;1.67;;;;;;;24.24;29.28;101702.59;16119605;19;129676;-50
2023/06/14 23:24:40;;;;;;;3.47;2.00;;;;;;;24.22;29.27;101704.78;16117916;19;131542;-47
2023/06/14 23:30:04;;;;;;;3.50;2.13;;;;;;;24.23;29.48;101698.09;16116777;19;132251;-50
2023/06/14 23:35:26;;;;;;;4.05;1.80;;;;;;;24.21;29.27;101691.91;16119317;19;129981;-52
2023/06/14 23:40:50;;;;;;;4.20;1.60;;;;;;;24.21;29.43;101691.91;16118559;19;131150;-46
2023/06/14 23:46:15;;;;;;;2.37;1.60;;;;;;;24.21;29.46;101700.31;16113911;19;130944;-50
2023/06/14 23:51:37;;;;;;;4.30;2.05;;;;;;;24.19;29.41;101702.53;16116072;19;130919;-47
2023/06/14 23:57:00;;;;;;;3.30;1.48;;;;;;;24.19;29.24;101702.53;16112497;19;130300;-48
